createdAt,value
2022-09-13T00:01:08.457Z,2.60
2022-09-13T00:03:34.915Z,2.40
2022-09-13T00:06:13.003Z,2.47
2022-09-13T00:08:41.966Z,2.70
2022-09-13T00:11:19.513Z,2.90
2022-09-13T00:13:46.930Z,2.92
2022-09-13T00:16:14.912Z,2.67
2022-09-13T00:18:41.814Z,2.40
2022-09-13T00:21:11.648Z,2.90
2022-09-13T00:23:39.039Z,3.13
2022-09-13T00:26:11.856Z,2.30
2022-09-13T00:28:40.756Z,2.67
2022-09-13T00:31:09.360Z,3.25
2022-09-13T00:33:36.242Z,2.28
2022-09-13T00:36:08.361Z,2.20
2022-09-13T00:41:09.834Z,3.13
2022-09-13T00:43:48.796Z,3.63
2022-09-13T00:46:38.158Z,3.50
2022-09-13T00:49:13.514Z,4.38
2022-09-13T00:51:45.166Z,3.10
2022-09-13T00:54:17.119Z,3.08
2022-09-13T00:56:48.917Z,2.40
2022-09-13T00:59:28.620Z,3.15
2022-09-13T01:01:57.462Z,3.17
2022-09-13T01:04:29.947Z,2.15
2022-09-13T01:07:03.334Z,2.88
2022-09-13T01:09:33.176Z,2.72
2022-09-13T01:12:25.667Z,2.08
2022-09-13T01:17:18.965Z,2.45
2022-09-13T01:19:45.414Z,2.38
2022-09-13T01:22:23.817Z,2.40
2022-09-13T01:25:28.215Z,1.92
2022-09-13T01:28:12.306Z,2.28
2022-09-13T01:30:51.891Z,2.63
2022-09-13T01:33:24.267Z,2.50
2022-09-13T01:36:13.444Z,2.63
2022-09-13T01:38:51.928Z,3.50
2022-09-13T01:41:36.462Z,3.90
2022-09-13T01:44:24.396Z,3.00
2022-09-13T01:47:08.428Z,2.58
2022-09-13T01:50:07.597Z,3.25
2022-09-13T01:52:56.275Z,2.75
2022-09-13T01:55:33.426Z,2.63
2022-09-13T01:58:15.963Z,2.03
2022-09-13T02:01:08.300Z,2.65
2022-09-13T02:06:29.526Z,2.45
2022-09-13T02:09:00.962Z,2.95
2022-09-13T02:11:27.945Z,2.72
2022-09-13T02:14:09.247Z,2.58
2022-09-13T02:16:45.937Z,2.33
2022-09-13T02:19:20.117Z,3.45
2022-09-13T02:21:52.884Z,2.88
2022-09-13T02:24:33.733Z,2.78
2022-09-13T02:27:05.321Z,3.17
2022-09-13T02:29:38.353Z,2.30
2022-09-13T02:32:16.320Z,2.03
2022-09-13T02:34:57.577Z,3.03
2022-09-13T02:37:27.843Z,2.60
2022-09-13T02:39:59.618Z,2.15
2022-09-13T02:42:41.871Z,3.55
2022-09-13T02:45:09.958Z,2.83
2022-09-13T02:48:00.038Z,3.00
2022-09-13T02:50:44.613Z,2.70
2022-09-13T02:53:30.569Z,2.67
2022-09-13T02:56:02.606Z,2.80
2022-09-13T02:58:35.025Z,3.20
2022-09-13T03:01:04.685Z,2.80
2022-09-13T03:03:31.263Z,2.13
2022-09-13T03:05:57.705Z,2.53
2022-09-13T03:08:24.736Z,2.15
2022-09-13T03:11:23.491Z,2.40
2022-09-13T03:14:29.156Z,3.15
2022-09-13T03:17:16.265Z,2.90
2022-09-13T03:19:59.244Z,3.20
2022-09-13T03:22:54.019Z,3.33
2022-09-13T03:25:26.562Z,3.50
2022-09-13T03:28:06.973Z,3.55
2022-09-13T03:30:37.110Z,3.90
2022-09-13T03:33:20.610Z,3.08
2022-09-13T03:36:11.814Z,3.03
2022-09-13T03:38:44.607Z,4.10
2022-09-13T03:41:17.976Z,3.42
2022-09-13T03:43:50.386Z,3.13
2022-09-13T03:46:31.358Z,3.00
2022-09-13T03:49:02.880Z,2.92
2022-09-13T03:51:29.512Z,2.88
2022-09-13T03:54:01.251Z,3.58
2022-09-13T03:56:27.777Z,2.90
2022-09-13T03:58:54.194Z,2.55
2022-09-13T04:01:23.448Z,3.53
2022-09-13T04:03:56.533Z,2.75
2022-09-13T04:06:23.495Z,4.05
2022-09-13T04:08:54.879Z,3.70
2022-09-13T04:11:26.150Z,3.42
2022-09-13T04:13:55.335Z,2.90
2022-09-13T04:16:24.837Z,2.30
2022-09-13T04:18:51.299Z,3.75
2022-09-13T04:21:22.647Z,1.70
2022-09-13T04:23:52.414Z,2.90
2022-09-13T04:26:18.758Z,2.50
2022-09-13T04:28:45.101Z,1.98
2022-09-13T04:31:11.604Z,3.15
2022-09-13T04:33:41.169Z,3.17
2022-09-13T04:36:07.582Z,2.13
2022-09-13T04:38:34.020Z,2.10
2022-09-13T04:41:00.450Z,3.17
2022-09-13T04:43:26.871Z,3.10
2022-09-13T04:45:53.331Z,3.08
2022-09-13T04:48:21.900Z,2.45
2022-09-13T04:50:50.607Z,2.97
2022-09-13T04:53:17.597Z,3.60
2022-09-13T04:55:44.371Z,3.03
2022-09-13T04:58:10.812Z,4.10
2022-09-13T05:00:37.426Z,3.28
2022-09-13T05:03:03.867Z,3.85
2022-09-13T05:05:32.241Z,3.72
2022-09-13T05:07:58.680Z,4.15
2022-09-13T05:10:27.985Z,2.85
2022-09-13T05:12:54.331Z,3.72
2022-09-13T05:15:23.291Z,3.60
2022-09-13T05:17:49.668Z,4.43
2022-09-13T05:20:18.670Z,3.40
2022-09-13T05:22:45.080Z,2.50
2022-09-13T05:25:14.072Z,3.63
2022-09-13T05:27:43.486Z,3.60
2022-09-13T05:30:10.469Z,2.95
2022-09-13T05:32:36.853Z,3.25
2022-09-13T05:35:03.437Z,3.17
2022-09-13T05:37:31.241Z,2.95
2022-09-13T05:40:13.109Z,2.92
2022-09-13T05:42:39.899Z,3.13
2022-09-13T05:45:07.099Z,3.50
2022-09-13T05:47:33.563Z,3.80
2022-09-13T05:50:10.159Z,3.55
2022-09-13T05:52:37.342Z,4.03
2022-09-13T05:55:06.862Z,2.95
2022-09-13T05:57:33.243Z,3.45
2022-09-13T05:59:59.701Z,2.80
2022-09-13T06:02:28.421Z,2.92
2022-09-13T06:04:57.202Z,2.88
2022-09-13T06:07:23.558Z,3.25
2022-09-13T06:09:50.440Z,3.72
2022-09-13T06:12:16.872Z,3.40
2022-09-13T06:14:45.531Z,3.08
2022-09-13T06:17:11.888Z,2.83
2022-09-13T06:19:39.722Z,3.33
2022-09-13T06:22:06.565Z,3.17
2022-09-13T06:24:38.312Z,3.15
2022-09-13T06:27:07.093Z,3.70
2022-09-13T06:29:33.530Z,3.38
2022-09-13T06:31:59.983Z,3.15
2022-09-13T06:34:31.130Z,3.15
2022-09-13T06:36:58.759Z,3.95
2022-09-13T06:39:27.672Z,3.92
2022-09-13T06:41:54.082Z,3.22
2022-09-13T06:44:20.441Z,3.13
2022-09-13T06:46:47.649Z,3.00
2022-09-13T06:49:14.093Z,3.13
2022-09-13T06:51:40.513Z,2.92
2022-09-13T06:54:07.008Z,4.22
2022-09-13T06:56:36.052Z,2.75
2022-09-13T06:59:05.417Z,2.58
2022-09-13T07:01:36.503Z,2.72
2022-09-13T07:04:06.484Z,3.50
2022-09-13T07:06:36.162Z,3.17
2022-09-13T07:09:05.878Z,2.92
2022-09-13T07:11:35.277Z,3.22
2022-09-13T07:14:02.246Z,2.58
2022-09-13T07:16:33.998Z,3.05
2022-09-13T07:19:03.060Z,2.72
2022-09-13T07:21:29.534Z,3.50
2022-09-13T07:23:56.877Z,2.97
2022-09-13T07:26:24.866Z,4.10
2022-09-13T07:28:59.784Z,2.53
2022-09-13T07:31:29.109Z,2.95
2022-09-13T07:34:00.456Z,2.75
2022-09-13T07:36:28.630Z,2.50
2022-09-13T07:38:55.144Z,2.97
2022-09-13T07:41:23.653Z,2.67
2022-09-13T07:43:51.829Z,2.58
2022-09-13T07:46:21.309Z,2.58
2022-09-13T07:48:49.523Z,3.03
2022-09-13T07:51:18.482Z,2.75
2022-09-13T07:53:57.095Z,2.33
2022-09-13T07:56:27.407Z,3.05
2022-09-13T07:58:55.120Z,2.40
2022-09-13T08:01:31.041Z,2.75
2022-09-13T08:04:03.630Z,3.08
2022-09-13T08:06:32.601Z,2.53
2022-09-13T08:08:59.209Z,2.83
2022-09-13T08:11:44.603Z,3.00
2022-09-13T08:14:15.393Z,2.50
2022-09-13T08:16:44.909Z,2.35
2022-09-13T08:19:14.768Z,2.42
2022-09-13T08:21:42.403Z,2.40
2022-09-13T08:24:14.106Z,2.83
2022-09-13T08:26:41.085Z,2.22
2022-09-13T08:29:07.845Z,2.50
2022-09-13T08:31:37.827Z,2.75
2022-09-13T08:34:04.272Z,2.20
2022-09-13T08:36:38.402Z,2.75
2022-09-13T08:39:04.843Z,2.10
2022-09-13T08:41:39.318Z,1.63
2022-09-13T08:44:07.831Z,2.70
2022-09-13T08:46:41.344Z,2.67
2022-09-13T08:49:32.440Z,2.75
2022-09-13T08:52:05.352Z,2.20
2022-09-13T08:54:32.759Z,2.40
2022-09-13T08:57:25.992Z,1.90
2022-09-13T09:00:17.785Z,2.33
2022-09-13T09:03:11.714Z,2.08
2022-09-13T09:05:54.497Z,2.00
2022-09-13T09:08:38.886Z,2.33
2022-09-13T09:11:12.706Z,1.95
2022-09-13T09:13:53.495Z,2.10
2022-09-13T09:16:35.229Z,1.63
2022-09-13T09:19:17.863Z,2.03
2022-09-13T09:21:47.198Z,1.90
2022-09-13T09:24:21.833Z,1.92
2022-09-13T09:26:50.817Z,1.80
2022-09-13T09:29:25.043Z,1.77
2022-09-13T09:32:01.587Z,1.70
2022-09-13T09:34:42.654Z,1.90
2022-09-13T09:37:21.125Z,1.85
2022-09-13T09:39:49.231Z,1.90
2022-09-13T09:42:21.311Z,1.75
2022-09-13T09:45:03.607Z,2.00
2022-09-13T09:47:39.629Z,1.63
2022-09-13T09:50:19.266Z,1.60
2022-09-13T09:53:10.059Z,1.73
2022-09-13T09:55:53.364Z,1.27
2022-09-13T09:58:37.316Z,1.60
2022-09-13T10:01:03.986Z,1.85
2022-09-13T10:03:33.453Z,1.98
2022-09-13T10:06:09.225Z,1.50
2022-09-13T10:08:41.813Z,1.75
2022-09-13T10:11:09.351Z,1.42
2022-09-13T10:13:37.233Z,1.50
2022-09-13T10:16:25.148Z,1.77
2022-09-13T10:18:51.641Z,1.52
2022-09-13T10:21:17.971Z,1.30
2022-09-13T10:23:47.080Z,1.42
2022-09-13T10:26:18.652Z,1.38
2022-09-13T10:31:20.951Z,1.60
2022-09-13T10:33:58.242Z,1.77
2022-09-13T10:36:51.006Z,2.80
2022-09-13T10:39:18.709Z,2.80
2022-09-13T10:41:50.397Z,1.38
2022-09-13T10:44:26.507Z,11.73
2022-09-13T10:46:55.296Z,1.77
2022-09-13T10:49:50.504Z,1.85
2022-09-13T10:52:31.202Z,1.98
2022-09-13T10:55:29.122Z,1.80
2022-09-13T10:58:01.782Z,1.63
2022-09-13T11:00:36.682Z,1.52
2022-09-13T11:03:29.829Z,1.75
2022-09-13T11:06:15.482Z,2.20
2022-09-13T11:08:46.417Z,1.42
2022-09-13T11:11:43.471Z,1.52
2022-09-13T11:14:38.954Z,1.40
2022-09-13T11:17:18.942Z,1.50
2022-09-13T11:19:58.954Z,1.63
2022-09-13T11:22:25.255Z,1.13
2022-09-13T11:25:11.242Z,1.50
2022-09-13T11:27:49.568Z,3.17
2022-09-13T11:30:20.494Z,1.30
2022-09-13T11:32:59.264Z,1.35
2022-09-13T11:35:44.312Z,1.02
2022-09-13T11:38:38.047Z,1.23
2022-09-13T11:41:23.744Z,1.30
2022-09-13T11:44:21.140Z,1.48
2022-09-13T11:47:02.704Z,1.35
2022-09-13T11:49:55.127Z,1.42
2022-09-13T11:52:49.773Z,1.30
2022-09-13T11:55:33.621Z,2.03
2022-09-13T11:58:07.303Z,1.70
2022-09-13T12:00:45.411Z,1.45
2022-09-13T12:03:37.248Z,1.50
2022-09-13T12:06:14.413Z,1.60
2022-09-13T12:08:51.524Z,1.23
2022-09-13T12:11:38.653Z,1.25
2022-09-13T12:14:13.530Z,1.30
2022-09-13T12:16:59.313Z,1.70
2022-09-13T12:19:28.991Z,1.20
2022-09-13T12:21:59.994Z,1.40
2022-09-13T12:24:46.120Z,1.50
2022-09-13T12:27:26.544Z,1.25
2022-09-13T12:29:57.488Z,1.00
2022-09-13T12:32:26.681Z,1.48
2022-09-13T12:35:07.942Z,1.50
2022-09-13T12:37:44.298Z,1.45
2022-09-13T12:40:44.221Z,1.80
2022-09-13T12:43:16.787Z,1.58
2022-09-13T12:46:16.039Z,1.35
2022-09-13T12:49:10.344Z,1.50
2022-09-13T12:51:42.419Z,1.80
2022-09-13T12:54:47.148Z,1.58
2022-09-13T12:57:23.827Z,1.60
2022-09-13T13:00:14.927Z,1.45
2022-09-13T13:02:59.624Z,1.38
2022-09-13T13:05:30.838Z,1.50
2022-09-13T13:08:06.836Z,1.42
2022-09-13T13:10:38.659Z,1.50
2022-09-13T13:13:35.932Z,1.30
2022-09-13T13:16:20.824Z,1.55
2022-09-13T13:18:52.490Z,1.60
2022-09-13T13:21:37.257Z,1.50
2022-09-13T13:24:15.773Z,1.40
2022-09-13T13:26:42.127Z,1.00
2022-09-13T13:29:18.039Z,0.90
2022-09-13T13:32:07.654Z,1.25
2022-09-13T13:34:39.026Z,1.23
2022-09-13T13:37:28.241Z,1.30
2022-09-13T13:40:13.177Z,1.08
2022-09-13T13:42:40.996Z,0.90
2022-09-13T13:45:21.285Z,1.02
2022-09-13T13:48:07.143Z,1.08
2022-09-13T13:50:36.248Z,1.20
2022-09-13T13:53:20.966Z,1.00
2022-09-13T13:55:49.295Z,1.25
2022-09-13T13:58:29.646Z,1.65
2022-09-13T14:01:02.316Z,0.90
2022-09-13T14:03:44.835Z,0.90
2022-09-13T14:06:21.622Z,0.90
2022-09-13T14:11:55.765Z,1.23
2022-09-13T14:14:46.327Z,1.20
2022-09-13T14:17:31.898Z,1.08
2022-09-13T14:20:09.439Z,1.00
2022-09-13T14:22:38.675Z,1.08
2022-09-13T14:25:19.963Z,0.90
2022-09-13T14:27:48.663Z,1.17
2022-09-13T14:30:20.181Z,1.42
2022-09-13T14:35:36.892Z,1.15
2022-09-13T14:38:33.248Z,1.08
2022-09-13T14:41:13.473Z,0.75
2022-09-13T14:43:43.759Z,0.75
2022-09-13T14:46:34.946Z,0.82
2022-09-13T14:49:07.176Z,1.25
2022-09-13T14:51:40.782Z,0.73
2022-09-13T14:54:17.644Z,0.93
2022-09-13T14:56:55.049Z,0.57
2022-09-13T14:59:52.259Z,0.75
2022-09-13T15:02:22.788Z,0.93
2022-09-13T15:04:55.916Z,0.93
2022-09-13T15:07:30.039Z,0.75
2022-09-13T15:10:12.944Z,0.50
2022-09-13T15:12:58.157Z,0.70
2022-09-13T15:15:37.855Z,0.82
2022-09-13T15:18:16.498Z,1.02
2022-09-13T15:21:03.444Z,1.08
2022-09-13T15:23:39.326Z,1.58
2022-09-13T15:26:20.905Z,0.80
2022-09-13T15:29:00.536Z,1.27
2022-09-13T15:31:29.542Z,0.52
2022-09-13T15:34:17.972Z,0.85
2022-09-13T15:36:45.695Z,0.70
2022-09-13T15:39:17.657Z,0.70
2022-09-13T15:42:03.829Z,0.77
2022-09-13T15:44:30.324Z,1.15
2022-09-13T15:47:02.408Z,1.10
2022-09-13T15:49:32.197Z,1.23
2022-09-13T15:52:05.538Z,1.52
2022-09-13T15:54:41.294Z,1.75
2022-09-13T15:57:19.526Z,1.33
2022-09-13T15:59:46.032Z,1.20
2022-09-13T16:02:23.167Z,1.60
2022-09-13T16:04:52.030Z,1.05
2022-09-13T16:07:19.401Z,0.95
2022-09-13T16:09:46.531Z,1.05
2022-09-13T16:12:12.909Z,1.23
2022-09-13T16:14:42.353Z,1.13
2022-09-13T16:17:16.822Z,0.88
2022-09-13T16:19:43.172Z,0.90
2022-09-13T16:22:12.658Z,0.80
2022-09-13T16:24:39.433Z,0.90
2022-09-13T16:27:05.947Z,1.15
2022-09-13T16:29:32.493Z,1.42
2022-09-13T16:32:05.315Z,0.95
2022-09-13T16:34:34.456Z,1.00
2022-09-13T16:37:05.909Z,1.38
2022-09-13T16:39:32.411Z,1.17
2022-09-13T16:41:58.849Z,1.10
2022-09-13T16:44:25.369Z,1.20
2022-09-13T16:46:52.138Z,1.20
2022-09-13T16:49:18.849Z,1.63
2022-09-13T16:51:48.163Z,1.10
2022-09-13T16:54:14.572Z,1.13
2022-09-13T16:56:41.385Z,0.90
2022-09-13T16:59:07.990Z,1.25
2022-09-13T17:01:34.593Z,0.98
2022-09-13T17:04:01.830Z,1.10
2022-09-13T17:06:28.302Z,1.45
2022-09-13T17:09:03.539Z,1.50
2022-09-13T17:11:33.269Z,1.38
2022-09-13T17:14:01.299Z,2.00
2022-09-13T17:16:31.041Z,1.60
2022-09-13T17:18:59.880Z,1.88
2022-09-13T17:21:29.306Z,1.70
2022-09-13T17:23:55.743Z,1.90
2022-09-13T17:26:22.540Z,2.28
2022-09-13T17:28:49.541Z,2.28
2022-09-13T17:31:16.826Z,2.10
2022-09-13T17:33:46.202Z,2.33
2022-09-13T17:36:14.142Z,2.53
2022-09-13T17:38:43.255Z,2.67
2022-09-13T17:41:17.428Z,2.47
2022-09-13T17:43:45.687Z,3.30
2022-09-13T17:46:23.599Z,3.38
2022-09-13T17:48:56.994Z,3.05
2022-09-13T17:51:25.956Z,3.10
2022-09-13T17:53:58.767Z,2.72
2022-09-13T17:56:30.839Z,2.75
2022-09-13T17:59:05.843Z,3.15
2022-09-13T18:01:37.053Z,3.10
2022-09-13T18:04:03.868Z,2.90
2022-09-13T18:06:30.358Z,3.28
2022-09-13T18:08:58.308Z,3.38
2022-09-13T18:11:24.774Z,2.95
2022-09-13T18:13:53.924Z,3.20
2022-09-13T18:16:24.818Z,3.45
2022-09-13T18:18:52.759Z,3.35
2022-09-13T18:21:22.485Z,3.35
2022-09-13T18:23:50.680Z,3.10
2022-09-13T18:26:20.182Z,2.53
2022-09-13T18:28:47.929Z,2.70
2022-09-13T18:31:17.887Z,3.10
2022-09-13T18:33:45.638Z,2.78
2022-09-13T18:36:14.822Z,3.25
2022-09-13T18:38:44.280Z,3.35
2022-09-13T18:41:18.163Z,2.95
2022-09-13T18:43:52.951Z,2.72
2022-09-13T18:47:00.574Z,3.70
2022-09-13T18:50:04.482Z,3.78
2022-09-13T18:53:08.266Z,4.03
2022-09-13T18:56:12.450Z,3.83
2022-09-13T18:59:16.508Z,4.65
2022-09-13T19:02:20.554Z,3.30
2022-09-13T19:05:24.760Z,3.55
2022-09-13T19:08:29.597Z,3.17
2022-09-13T19:11:49.566Z,3.63
2022-09-13T19:14:53.829Z,3.50
2022-09-13T19:17:58.117Z,3.05
2022-09-13T19:21:04.738Z,3.72
2022-09-13T19:24:16.261Z,3.53
2022-09-13T19:27:20.619Z,4.07
2022-09-13T19:30:24.577Z,3.88
2022-09-13T19:33:28.775Z,4.00
2022-09-13T19:36:34.460Z,4.05
2022-09-13T19:39:38.830Z,3.63
2022-09-13T19:42:43.471Z,4.07
2022-09-13T19:45:10.965Z,4.00
2022-09-13T19:50:24.487Z,3.38
2022-09-13T19:52:50.845Z,4.05
2022-09-13T19:55:17.414Z,3.45
2022-09-13T19:57:45.104Z,3.58
2022-09-13T20:00:12.272Z,3.83
2022-09-13T20:02:38.613Z,3.80
2022-09-13T20:05:08.662Z,3.38
2022-09-13T20:07:35.153Z,4.22
2022-09-13T20:10:04.184Z,3.95
2022-09-13T20:12:32.836Z,3.65
2022-09-13T20:14:59.262Z,3.53
2022-09-13T20:17:25.593Z,3.58
2022-09-13T20:19:52.435Z,3.50
2022-09-13T20:22:18.863Z,4.07
2022-09-13T20:24:45.609Z,3.20
2022-09-13T20:27:12.701Z,3.22
2022-09-13T20:29:42.326Z,3.33
2022-09-13T20:32:09.443Z,3.13
2022-09-13T20:34:37.729Z,4.03
2022-09-13T20:37:04.603Z,3.15
2022-09-13T20:39:31.383Z,3.17
2022-09-13T20:42:00.270Z,3.15
2022-09-13T20:44:26.742Z,3.03
2022-09-13T20:46:55.419Z,3.10
2022-09-13T20:49:23.590Z,4.00
2022-09-13T20:51:50.091Z,2.60
2022-09-13T20:54:16.474Z,3.10
2022-09-13T20:56:43.003Z,2.88
2022-09-13T20:59:10.124Z,2.95
2022-09-13T21:01:36.550Z,2.55
2022-09-13T21:04:03.615Z,2.60
2022-09-13T21:06:32.243Z,2.90
2022-09-13T21:09:00.083Z,3.55
2022-09-13T21:11:35.625Z,3.50
2022-09-13T21:14:06.526Z,4.63
2022-09-13T21:16:35.832Z,4.03
2022-09-13T21:19:03.339Z,4.22
2022-09-13T21:21:31.900Z,4.15
2022-09-13T21:24:00.408Z,4.10
2022-09-13T21:26:31.458Z,3.45
2022-09-13T21:28:58.702Z,4.00
2022-09-13T21:31:30.566Z,4.15
2022-09-13T21:34:17.198Z,3.28
2022-09-13T21:36:44.886Z,3.67
2022-09-13T21:39:14.672Z,4.30
2022-09-13T21:41:41.134Z,4.95
2022-09-13T21:44:10.318Z,4.72
2022-09-13T21:46:38.258Z,4.75
2022-09-13T21:49:09.105Z,3.38
2022-09-13T21:51:38.717Z,3.40
2022-09-13T21:54:08.589Z,3.80
2022-09-13T21:56:42.607Z,2.90
2022-09-13T21:59:14.431Z,4.18
2022-09-13T22:04:13.118Z,4.28
2022-09-13T22:06:39.534Z,3.77
2022-09-13T22:09:11.071Z,4.45
2022-09-13T22:11:40.218Z,4.22
2022-09-13T22:14:09.351Z,4.72
2022-09-13T22:16:38.786Z,5.18
2022-09-13T22:19:20.145Z,3.33
2022-09-13T22:21:50.906Z,4.25
2022-09-13T22:24:19.887Z,3.78
2022-09-13T22:26:47.714Z,3.30
2022-09-13T22:29:17.400Z,3.15
2022-09-13T22:31:46.281Z,3.65
2022-09-13T22:34:18.750Z,3.88
2022-09-13T22:36:45.664Z,3.75
2022-09-13T22:39:13.895Z,6.22
2022-09-13T22:41:40.486Z,3.97
2022-09-13T22:44:07.636Z,4.57
2022-09-13T22:46:37.413Z,4.03
2022-09-13T22:49:07.247Z,4.53
2022-09-13T22:51:34.232Z,4.63
2022-09-13T22:54:05.014Z,4.20
2022-09-13T22:56:34.469Z,4.65
2022-09-13T22:59:12.299Z,4.00
2022-09-13T23:01:39.481Z,3.40
2022-09-13T23:04:06.690Z,3.00
2022-09-13T23:06:34.492Z,3.05
2022-09-13T23:09:03.849Z,3.67
2022-09-13T23:11:40.092Z,3.70
2022-09-13T23:14:14.747Z,4.80
2022-09-13T23:16:48.746Z,4.72
2022-09-13T23:19:16.646Z,5.20
2022-09-13T23:21:43.839Z,6.25
2022-09-13T23:24:15.986Z,4.00
2022-09-13T23:26:47.947Z,4.68
2022-09-13T23:29:19.117Z,5.55
2022-09-13T23:31:51.958Z,5.45
2022-09-13T23:34:18.516Z,5.43
2022-09-13T23:36:46.234Z,5.07
2022-09-13T23:39:19.805Z,5.18
2022-09-13T23:41:47.499Z,5.97
2022-09-13T23:44:14.601Z,5.50
2022-09-13T23:46:42.664Z,6.57
2022-09-13T23:49:11.695Z,5.53
2022-09-13T23:51:40.804Z,6.25
2022-09-13T23:54:09.783Z,6.25
2022-09-13T23:56:36.164Z,7.03
2022-09-13T23:59:04.086Z,5.95
